sensor_id;sensor_type;location;lat;lon;timestamp;P1;durP1;ratioP1;P2;durP2;ratioP2
36423;SDS011;22458;45.328;9.514;2023-06-10T00:01:36;8.68;;;7.78;;
36423;SDS011;22458;45.328;9.514;2023-06-10T00:04:02;8.20;;;7.40;;
36423;SDS011;22458;45.328;9.514;2023-06-10T00:06:29;7.97;;;6.88;;
36423;SDS011;22458;45.328;9.514;2023-06-10T00:09:02;8.68;;;7.28;;
36423;SDS011;22458;45.328;9.514;2023-06-10T00:11:30;7.35;;;6.50;;
36423;SDS011;22458;45.328;9.514;2023-06-10T00:16:24;6.70;;;5.80;;
36423;SDS011;22458;45.328;9.514;2023-06-10T00:18:50;7.00;;;6.30;;
36423;SDS011;22458;45.328;9.514;2023-06-10T00:21:21;7.60;;;6.47;;
36423;SDS011;22458;45.328;9.514;2023-06-10T00:23:47;7.40;;;6.53;;
36423;SDS011;22458;45.328;9.514;2023-06-10T00:26:13;7.05;;;6.35;;
36423;SDS011;22458;45.328;9.514;2023-06-10T00:28:41;7.97;;;6.38;;
36423;SDS011;22458;45.328;9.514;2023-06-10T00:31:06;12.55;;;6.45;;
36423;SDS011;22458;45.328;9.514;2023-06-10T00:33:32;7.47;;;5.82;;
36423;SDS011;22458;45.328;9.514;2023-06-10T00:35:58;9.65;;;6.70;;
36423;SDS011;22458;45.328;9.514;2023-06-10T00:38:23;7.75;;;6.20;;
36423;SDS011;22458;45.328;9.514;2023-06-10T00:40:49;8.23;;;6.25;;
36423;SDS011;22458;45.328;9.514;2023-06-10T00:43:16;8.82;;;7.03;;
36423;SDS011;22458;45.328;9.514;2023-06-10T00:45:42;8.63;;;6.95;;
36423;SDS011;22458;45.328;9.514;2023-06-10T00:48:08;7.78;;;6.75;;
36423;SDS011;22458;45.328;9.514;2023-06-10T00:50:34;7.50;;;6.70;;
36423;SDS011;22458;45.328;9.514;2023-06-10T00:53:02;7.50;;;6.28;;
36423;SDS011;22458;45.328;9.514;2023-06-10T00:55:28;7.13;;;6.43;;
36423;SDS011;22458;45.328;9.514;2023-06-10T00:57:54;7.20;;;5.80;;
36423;SDS011;22458;45.328;9.514;2023-06-10T01:00:20;7.00;;;6.30;;
36423;SDS011;22458;45.328;9.514;2023-06-10T01:02:46;10.38;;;7.65;;
36423;SDS011;22458;45.328;9.514;2023-06-10T01:05:11;9.43;;;6.93;;
36423;SDS011;22458;45.328;9.514;2023-06-10T01:07:38;8.57;;;7.13;;
36423;SDS011;22458;45.328;9.514;2023-06-10T01:10:20;8.00;;;5.53;;
36423;SDS011;22458;45.328;9.514;2023-06-10T01:12:58;7.18;;;5.80;;
36423;SDS011;22458;45.328;9.514;2023-06-10T01:15:29;8.18;;;5.72;;
36423;SDS011;22458;45.328;9.514;2023-06-10T01:18:00;7.15;;;5.47;;
36423;SDS011;22458;45.328;9.514;2023-06-10T01:20:32;9.10;;;5.75;;
36423;SDS011;22458;45.328;9.514;2023-06-10T01:22:59;6.25;;;5.10;;
36423;SDS011;22458;45.328;9.514;2023-06-10T01:25:26;8.65;;;5.30;;
36423;SDS011;22458;45.328;9.514;2023-06-10T01:33:19;7.15;;;4.55;;
36423;SDS011;22458;45.328;9.514;2023-06-10T01:35:58;5.82;;;4.20;;
36423;SDS011;22458;45.328;9.514;2023-06-10T01:38:27;7.38;;;4.70;;
36423;SDS011;22458;45.328;9.514;2023-06-10T01:40:58;7.72;;;4.90;;
36423;SDS011;22458;45.328;9.514;2023-06-10T01:43:25;7.90;;;4.85;;
36423;SDS011;22458;45.328;9.514;2023-06-10T01:45:51;8.25;;;5.97;;
36423;SDS011;22458;45.328;9.514;2023-06-10T01:48:17;7.45;;;4.68;;
36423;SDS011;22458;45.328;9.514;2023-06-10T01:50:43;7.57;;;4.97;;
36423;SDS011;22458;45.328;9.514;2023-06-10T01:53:09;7.22;;;4.80;;
36423;SDS011;22458;45.328;9.514;2023-06-10T01:55:34;6.95;;;5.30;;
36423;SDS011;22458;45.328;9.514;2023-06-10T01:58:00;6.07;;;4.75;;
36423;SDS011;22458;45.328;9.514;2023-06-10T02:00:26;5.10;;;4.50;;
36423;SDS011;22458;45.328;9.514;2023-06-10T02:02:52;6.03;;;4.57;;
36423;SDS011;22458;45.328;9.514;2023-06-10T02:05:18;4.88;;;3.65;;
36423;SDS011;22458;45.328;9.514;2023-06-10T02:07:44;5.82;;;4.75;;
36423;SDS011;22458;45.328;9.514;2023-06-10T02:10:10;6.65;;;4.32;;
36423;SDS011;22458;45.328;9.514;2023-06-10T02:12:36;8.95;;;4.65;;
36423;SDS011;22458;45.328;9.514;2023-06-10T02:15:02;8.05;;;4.20;;
36423;SDS011;22458;45.328;9.514;2023-06-10T02:17:28;7.80;;;4.50;;
36423;SDS011;22458;45.328;9.514;2023-06-10T02:19:55;8.23;;;4.07;;
36423;SDS011;22458;45.328;9.514;2023-06-10T02:22:22;5.82;;;3.92;;
36423;SDS011;22458;45.328;9.514;2023-06-10T02:24:48;6.65;;;4.03;;
36423;SDS011;22458;45.328;9.514;2023-06-10T02:27:15;5.90;;;4.35;;
36423;SDS011;22458;45.328;9.514;2023-06-10T02:29:41;8.02;;;3.53;;
36423;SDS011;22458;45.328;9.514;2023-06-10T02:32:09;6.03;;;3.35;;
36423;SDS011;22458;45.328;9.514;2023-06-10T02:34:35;6.53;;;3.35;;
36423;SDS011;22458;45.328;9.514;2023-06-10T02:37:03;3.47;;;2.90;;
36423;SDS011;22458;45.328;9.514;2023-06-10T02:39:29;8.35;;;3.78;;
36423;SDS011;22458;45.328;9.514;2023-06-10T02:41:56;3.85;;;2.80;;
36423;SDS011;22458;45.328;9.514;2023-06-10T02:44:21;6.30;;;3.72;;
36423;SDS011;22458;45.328;9.514;2023-06-10T02:46:48;4.90;;;3.20;;
36423;SDS011;22458;45.328;9.514;2023-06-10T02:49:15;4.15;;;3.03;;
36423;SDS011;22458;45.328;9.514;2023-06-10T02:51:41;4.32;;;2.92;;
36423;SDS011;22458;45.328;9.514;2023-06-10T02:54:07;4.50;;;2.63;;
36423;SDS011;22458;45.328;9.514;2023-06-10T02:56:34;3.40;;;2.88;;
36423;SDS011;22458;45.328;9.514;2023-06-10T02:59:02;3.33;;;2.90;;
36423;SDS011;22458;45.328;9.514;2023-06-10T03:01:30;7.93;;;3.17;;
36423;SDS011;22458;45.328;9.514;2023-06-10T03:04:04;3.75;;;2.88;;
36423;SDS011;22458;45.328;9.514;2023-06-10T03:06:32;4.50;;;3.13;;
36423;SDS011;22458;45.328;9.514;2023-06-10T03:09:16;4.28;;;2.25;;
36423;SDS011;22458;45.328;9.514;2023-06-10T03:11:44;5.22;;;2.40;;
36423;SDS011;22458;45.328;9.514;2023-06-10T03:14:11;4.68;;;2.70;;
36423;SDS011;22458;45.328;9.514;2023-06-10T03:16:36;5.32;;;3.13;;
36423;SDS011;22458;45.328;9.514;2023-06-10T03:21:34;6.07;;;2.97;;
36423;SDS011;22458;45.328;9.514;2023-06-10T03:24:00;2.60;;;2.40;;
36423;SDS011;22458;45.328;9.514;2023-06-10T03:26:27;5.95;;;2.95;;
36423;SDS011;22458;45.328;9.514;2023-06-10T03:28:53;3.28;;;2.58;;
36423;SDS011;22458;45.328;9.514;2023-06-10T03:31:21;6.38;;;3.10;;
36423;SDS011;22458;45.328;9.514;2023-06-10T03:33:49;4.45;;;2.78;;
36423;SDS011;22458;45.328;9.514;2023-06-10T03:36:16;3.50;;;3.00;;
36423;SDS011;22458;45.328;9.514;2023-06-10T03:38:42;5.28;;;3.90;;
36423;SDS011;22458;45.328;9.514;2023-06-10T03:41:08;9.43;;;4.95;;
36423;SDS011;22458;45.328;9.514;2023-06-10T03:43:34;5.80;;;4.40;;
36423;SDS011;22458;45.328;9.514;2023-06-10T03:46:00;4.20;;;2.70;;
36423;SDS011;22458;45.328;9.514;2023-06-10T03:48:26;4.78;;;2.88;;
36423;SDS011;22458;45.328;9.514;2023-06-10T03:50:53;5.38;;;2.80;;
36423;SDS011;22458;45.328;9.514;2023-06-10T03:53:20;6.07;;;3.13;;
36423;SDS011;22458;45.328;9.514;2023-06-10T03:55:46;10.32;;;3.67;;
36423;SDS011;22458;45.328;9.514;2023-06-10T03:58:13;4.43;;;2.38;;
36423;SDS011;22458;45.328;9.514;2023-06-10T04:00:40;4.25;;;2.75;;
36423;SDS011;22458;45.328;9.514;2023-06-10T04:03:07;4.22;;;3.38;;
36423;SDS011;22458;45.328;9.514;2023-06-10T04:05:44;3.40;;;2.22;;
36423;SDS011;22458;45.328;9.514;2023-06-10T04:08:09;5.78;;;2.83;;
36423;SDS011;22458;45.328;9.514;2023-06-10T04:10:36;4.47;;;2.65;;
36423;SDS011;22458;45.328;9.514;2023-06-10T04:13:02;5.90;;;3.50;;
36423;SDS011;22458;45.328;9.514;2023-06-10T04:15:32;5.80;;;3.20;;
36423;SDS011;22458;45.328;9.514;2023-06-10T04:18:00;10.07;;;2.83;;
36423;SDS011;22458;45.328;9.514;2023-06-10T04:20:26;8.93;;;3.05;;
36423;SDS011;22458;45.328;9.514;2023-06-10T04:22:52;5.20;;;2.58;;
36423;SDS011;22458;45.328;9.514;2023-06-10T04:25:19;4.55;;;2.25;;
36423;SDS011;22458;45.328;9.514;2023-06-10T04:27:47;4.05;;;2.58;;
36423;SDS011;22458;45.328;9.514;2023-06-10T04:30:14;4.18;;;2.40;;
36423;SDS011;22458;45.328;9.514;2023-06-10T04:32:40;5.25;;;2.60;;
36423;SDS011;22458;45.328;9.514;2023-06-10T04:35:14;4.72;;;2.88;;
36423;SDS011;22458;45.328;9.514;2023-06-10T04:37:41;4.93;;;2.80;;
36423;SDS011;22458;45.328;9.514;2023-06-10T04:40:08;5.32;;;3.05;;
36423;SDS011;22458;45.328;9.514;2023-06-10T04:42:34;5.28;;;2.92;;
36423;SDS011;22458;45.328;9.514;2023-06-10T04:45:00;4.40;;;2.72;;
36423;SDS011;22458;45.328;9.514;2023-06-10T04:47:27;5.15;;;2.95;;
36423;SDS011;22458;45.328;9.514;2023-06-10T04:49:53;4.63;;;2.80;;
36423;SDS011;22458;45.328;9.514;2023-06-10T04:52:19;7.30;;;3.25;;
36423;SDS011;22458;45.328;9.514;2023-06-10T04:54:47;7.78;;;3.20;;
36423;SDS011;22458;45.328;9.514;2023-06-10T04:57:16;5.50;;;3.00;;
36423;SDS011;22458;45.328;9.514;2023-06-10T04:59:41;6.55;;;3.10;;
36423;SDS011;22458;45.328;9.514;2023-06-10T05:02:07;4.53;;;3.15;;
36423;SDS011;22458;45.328;9.514;2023-06-10T05:04:33;5.93;;;3.20;;
36423;SDS011;22458;45.328;9.514;2023-06-10T05:06:58;6.45;;;3.45;;
36423;SDS011;22458;45.328;9.514;2023-06-10T05:09:24;4.70;;;2.67;;
36423;SDS011;22458;45.328;9.514;2023-06-10T05:11:51;5.82;;;2.90;;
36423;SDS011;22458;45.328;9.514;2023-06-10T05:14:19;5.53;;;3.40;;
36423;SDS011;22458;45.328;9.514;2023-06-10T05:16:46;8.07;;;3.15;;
36423;SDS011;22458;45.328;9.514;2023-06-10T05:19:12;8.48;;;3.40;;
36423;SDS011;22458;45.328;9.514;2023-06-10T05:21:38;5.72;;;3.45;;
36423;SDS011;22458;45.328;9.514;2023-06-10T05:24:04;5.68;;;3.28;;
36423;SDS011;22458;45.328;9.514;2023-06-10T05:26:30;5.57;;;3.25;;
36423;SDS011;22458;45.328;9.514;2023-06-10T05:28:58;5.57;;;3.33;;
36423;SDS011;22458;45.328;9.514;2023-06-10T05:31:23;4.50;;;3.08;;
36423;SDS011;22458;45.328;9.514;2023-06-10T05:33:49;6.72;;;3.55;;
36423;SDS011;22458;45.328;9.514;2023-06-10T05:36:15;6.10;;;4.00;;
36423;SDS011;22458;45.328;9.514;2023-06-10T05:38:41;4.50;;;3.40;;
36423;SDS011;22458;45.328;9.514;2023-06-10T05:41:06;6.47;;;3.35;;
36423;SDS011;22458;45.328;9.514;2023-06-10T05:43:32;6.00;;;3.60;;
36423;SDS011;22458;45.328;9.514;2023-06-10T05:45:58;4.47;;;3.38;;
36423;SDS011;22458;45.328;9.514;2023-06-10T05:48:23;6.25;;;3.05;;
36423;SDS011;22458;45.328;9.514;2023-06-10T05:50:49;5.13;;;3.30;;
36423;SDS011;22458;45.328;9.514;2023-06-10T05:53:15;5.18;;;3.22;;
36423;SDS011;22458;45.328;9.514;2023-06-10T05:55:42;4.20;;;3.33;;
36423;SDS011;22458;45.328;9.514;2023-06-10T05:58:08;5.75;;;3.33;;
36423;SDS011;22458;45.328;9.514;2023-06-10T06:00:34;4.93;;;3.03;;
36423;SDS011;22458;45.328;9.514;2023-06-10T06:03:00;5.68;;;3.45;;
36423;SDS011;22458;45.328;9.514;2023-06-10T06:05:26;9.63;;;3.83;;
36423;SDS011;22458;45.328;9.514;2023-06-10T06:07:51;4.97;;;3.80;;
36423;SDS011;22458;45.328;9.514;2023-06-10T06:10:17;4.20;;;3.20;;
36423;SDS011;22458;45.328;9.514;2023-06-10T06:12:43;9.07;;;3.97;;
36423;SDS011;22458;45.328;9.514;2023-06-10T06:15:10;4.57;;;3.80;;
36423;SDS011;22458;45.328;9.514;2023-06-10T06:17:36;5.40;;;3.50;;
36423;SDS011;22458;45.328;9.514;2023-06-10T06:20:02;6.00;;;3.90;;
36423;SDS011;22458;45.328;9.514;2023-06-10T06:22:28;6.65;;;4.22;;
36423;SDS011;22458;45.328;9.514;2023-06-10T06:24:54;5.13;;;3.28;;
36423;SDS011;22458;45.328;9.514;2023-06-10T06:27:20;5.25;;;3.25;;
36423;SDS011;22458;45.328;9.514;2023-06-10T06:29:46;7.72;;;3.58;;
36423;SDS011;22458;45.328;9.514;2023-06-10T06:32:12;5.70;;;3.67;;
36423;SDS011;22458;45.328;9.514;2023-06-10T06:34:37;6.40;;;4.03;;
36423;SDS011;22458;45.328;9.514;2023-06-10T06:37:03;5.40;;;3.83;;
36423;SDS011;22458;45.328;9.514;2023-06-10T06:39:32;7.43;;;3.70;;
36423;SDS011;22458;45.328;9.514;2023-06-10T06:41:58;4.75;;;4.03;;
36423;SDS011;22458;45.328;9.514;2023-06-10T06:44:40;6.28;;;3.95;;
36423;SDS011;22458;45.328;9.514;2023-06-10T06:47:06;7.22;;;4.35;;
36423;SDS011;22458;45.328;9.514;2023-06-10T06:49:32;6.07;;;4.70;;
36423;SDS011;22458;45.328;9.514;2023-06-10T06:51:58;4.57;;;3.88;;
36423;SDS011;22458;45.328;9.514;2023-06-10T06:54:24;5.53;;;3.67;;
36423;SDS011;22458;45.328;9.514;2023-06-10T06:56:49;6.20;;;4.20;;
36423;SDS011;22458;45.328;9.514;2023-06-10T06:59:15;6.57;;;3.78;;
36423;SDS011;22458;45.328;9.514;2023-06-10T07:01:44;7.03;;;4.13;;
36423;SDS011;22458;45.328;9.514;2023-06-10T07:04:12;8.20;;;4.72;;
36423;SDS011;22458;45.328;9.514;2023-06-10T07:06:39;6.55;;;4.35;;
36423;SDS011;22458;45.328;9.514;2023-06-10T07:09:07;8.07;;;3.83;;
36423;SDS011;22458;45.328;9.514;2023-06-10T07:11:33;6.25;;;4.78;;
36423;SDS011;22458;45.328;9.514;2023-06-10T07:13:59;7.72;;;4.28;;
36423;SDS011;22458;45.328;9.514;2023-06-10T07:16:25;6.50;;;5.03;;
36423;SDS011;22458;45.328;9.514;2023-06-10T07:18:52;6.57;;;4.10;;
36423;SDS011;22458;45.328;9.514;2023-06-10T07:21:18;8.02;;;4.53;;
36423;SDS011;22458;45.328;9.514;2023-06-10T07:23:44;6.20;;;3.72;;
36423;SDS011;22458;45.328;9.514;2023-06-10T07:26:10;5.30;;;4.05;;
36423;SDS011;22458;45.328;9.514;2023-06-10T07:28:38;6.88;;;3.90;;
36423;SDS011;22458;45.328;9.514;2023-06-10T07:31:05;6.82;;;3.58;;
36423;SDS011;22458;45.328;9.514;2023-06-10T07:33:30;5.85;;;4.22;;
36423;SDS011;22458;45.328;9.514;2023-06-10T07:35:56;5.13;;;3.65;;
36423;SDS011;22458;45.328;9.514;2023-06-10T07:38:24;3.90;;;3.50;;
36423;SDS011;22458;45.328;9.514;2023-06-10T07:40:50;5.35;;;3.40;;
36423;SDS011;22458;45.328;9.514;2023-06-10T07:43:16;5.13;;;3.65;;
36423;SDS011;22458;45.328;9.514;2023-06-10T07:45:42;6.18;;;4.00;;
36423;SDS011;22458;45.328;9.514;2023-06-10T07:48:09;7.60;;;3.97;;
36423;SDS011;22458;45.328;9.514;2023-06-10T07:50:34;4.05;;;3.15;;
36423;SDS011;22458;45.328;9.514;2023-06-10T07:53:00;5.43;;;4.13;;
36423;SDS011;22458;45.328;9.514;2023-06-10T07:55:26;4.88;;;3.00;;
36423;SDS011;22458;45.328;9.514;2023-06-10T07:57:52;4.40;;;3.20;;
36423;SDS011;22458;45.328;9.514;2023-06-10T08:00:19;3.55;;;3.25;;
36423;SDS011;22458;45.328;9.514;2023-06-10T08:02:45;5.50;;;3.30;;
36423;SDS011;22458;45.328;9.514;2023-06-10T08:05:12;4.38;;;3.53;;
36423;SDS011;22458;45.328;9.514;2023-06-10T08:07:39;5.05;;;3.30;;
36423;SDS011;22458;45.328;9.514;2023-06-10T08:10:05;4.78;;;2.80;;
36423;SDS011;22458;45.328;9.514;2023-06-10T08:12:32;3.88;;;2.85;;
36423;SDS011;22458;45.328;9.514;2023-06-10T08:14:59;7.07;;;2.85;;
36423;SDS011;22458;45.328;9.514;2023-06-10T08:17:25;4.55;;;2.80;;
36423;SDS011;22458;45.328;9.514;2023-06-10T08:19:51;5.13;;;2.83;;
36423;SDS011;22458;45.328;9.514;2023-06-10T08:22:16;2.53;;;2.08;;
36423;SDS011;22458;45.328;9.514;2023-06-10T08:24:42;4.43;;;2.83;;
36423;SDS011;22458;45.328;9.514;2023-06-10T08:27:08;4.03;;;2.38;;
36423;SDS011;22458;45.328;9.514;2023-06-10T08:29:34;3.85;;;2.13;;
36423;SDS011;22458;45.328;9.514;2023-06-10T08:31:59;3.22;;;2.42;;
36423;SDS011;22458;45.328;9.514;2023-06-10T08:34:25;2.97;;;2.03;;
36423;SDS011;22458;45.328;9.514;2023-06-10T08:36:51;6.60;;;2.80;;
36423;SDS011;22458;45.328;9.514;2023-06-10T08:39:20;3.45;;;2.90;;
36423;SDS011;22458;45.328;9.514;2023-06-10T08:41:49;6.55;;;3.45;;
36423;SDS011;22458;45.328;9.514;2023-06-10T08:44:31;4.38;;;2.25;;
36423;SDS011;22458;45.328;9.514;2023-06-10T08:47:01;6.80;;;3.17;;
36423;SDS011;22458;45.328;9.514;2023-06-10T08:49:31;3.38;;;2.08;;
36423;SDS011;22458;45.328;9.514;2023-06-10T08:52:03;3.22;;;2.22;;
36423;SDS011;22458;45.328;9.514;2023-06-10T08:54:31;3.67;;;2.13;;
36423;SDS011;22458;45.328;9.514;2023-06-10T08:57:05;3.78;;;2.45;;
36423;SDS011;22458;45.328;9.514;2023-06-10T08:59:31;3.35;;;2.28;;
36423;SDS011;22458;45.328;9.514;2023-06-10T09:01:57;3.47;;;2.10;;
36423;SDS011;22458;45.328;9.514;2023-06-10T09:04:23;4.53;;;2.35;;
36423;SDS011;22458;45.328;9.514;2023-06-10T09:06:50;6.00;;;2.78;;
36423;SDS011;22458;45.328;9.514;2023-06-10T09:09:17;6.75;;;2.70;;
36423;SDS011;22458;45.328;9.514;2023-06-10T09:11:45;5.47;;;2.90;;
36423;SDS011;22458;45.328;9.514;2023-06-10T09:14:11;8.80;;;3.50;;
36423;SDS011;22458;45.328;9.514;2023-06-10T09:16:38;4.35;;;3.25;;
36423;SDS011;22458;45.328;9.514;2023-06-10T09:19:04;6.45;;;3.78;;
36423;SDS011;22458;45.328;9.514;2023-06-10T09:21:33;6.20;;;3.45;;
36423;SDS011;22458;45.328;9.514;2023-06-10T09:24:01;4.60;;;3.50;;
36423;SDS011;22458;45.328;9.514;2023-06-10T09:26:30;4.90;;;3.63;;
36423;SDS011;22458;45.328;9.514;2023-06-10T09:28:58;5.50;;;3.83;;
36423;SDS011;22458;45.328;9.514;2023-06-10T09:31:31;8.65;;;3.40;;
36423;SDS011;22458;45.328;9.514;2023-06-10T09:36:39;4.20;;;3.33;;
36423;SDS011;22458;45.328;9.514;2023-06-10T09:39:13;6.22;;;4.65;;
36423;SDS011;22458;45.328;9.514;2023-06-10T09:41:41;6.95;;;3.25;;
36423;SDS011;22458;45.328;9.514;2023-06-10T09:44:17;4.53;;;2.90;;
36423;SDS011;22458;45.328;9.514;2023-06-10T09:46:48;5.63;;;3.28;;
36423;SDS011;22458;45.328;9.514;2023-06-10T09:49:16;7.28;;;3.20;;
36423;SDS011;22458;45.328;9.514;2023-06-10T09:51:54;3.92;;;3.35;;
36423;SDS011;22458;45.328;9.514;2023-06-10T09:54:20;3.65;;;2.92;;
36423;SDS011;22458;45.328;9.514;2023-06-10T09:56:47;5.07;;;2.78;;
36423;SDS011;22458;45.328;9.514;2023-06-10T09:59:14;5.70;;;2.88;;
36423;SDS011;22458;45.328;9.514;2023-06-10T10:01:40;4.93;;;3.05;;
36423;SDS011;22458;45.328;9.514;2023-06-10T10:04:06;6.25;;;3.42;;
36423;SDS011;22458;45.328;9.514;2023-06-10T10:06:31;3.75;;;3.00;;
36423;SDS011;22458;45.328;9.514;2023-06-10T10:08:57;6.85;;;2.75;;
36423;SDS011;22458;45.328;9.514;2023-06-10T10:11:23;4.57;;;2.63;;
36423;SDS011;22458;45.328;9.514;2023-06-10T10:13:51;3.95;;;2.50;;
36423;SDS011;22458;45.328;9.514;2023-06-10T10:16:21;3.78;;;2.85;;
36423;SDS011;22458;45.328;9.514;2023-06-10T10:18:54;5.13;;;2.65;;
36423;SDS011;22458;45.328;9.514;2023-06-10T10:21:23;4.75;;;2.25;;
36423;SDS011;22458;45.328;9.514;2023-06-10T10:23:55;4.45;;;2.45;;
36423;SDS011;22458;45.328;9.514;2023-06-10T10:26:26;2.67;;;2.08;;
36423;SDS011;22458;45.328;9.514;2023-06-10T10:29:03;3.30;;;2.00;;
36423;SDS011;22458;45.328;9.514;2023-06-10T10:31:44;3.03;;;1.95;;
36423;SDS011;22458;45.328;9.514;2023-06-10T10:34:19;3.22;;;1.98;;
36423;SDS011;22458;45.328;9.514;2023-06-10T10:36:51;2.88;;;1.90;;
36423;SDS011;22458;45.328;9.514;2023-06-10T10:39:17;5.85;;;1.95;;
36423;SDS011;22458;45.328;9.514;2023-06-10T10:41:45;4.33;;;1.77;;
36423;SDS011;22458;45.328;9.514;2023-06-10T10:44:11;3.65;;;1.75;;
36423;SDS011;22458;45.328;9.514;2023-06-10T10:46:42;5.80;;;2.28;;
36423;SDS011;22458;45.328;9.514;2023-06-10T10:49:09;3.65;;;2.00;;
36423;SDS011;22458;45.328;9.514;2023-06-10T10:51:37;3.92;;;2.15;;
36423;SDS011;22458;45.328;9.514;2023-06-10T10:54:18;4.75;;;1.73;;
36423;SDS011;22458;45.328;9.514;2023-06-10T10:59:45;3.30;;;1.80;;
36423;SDS011;22458;45.328;9.514;2023-06-10T11:02:32;3.28;;;1.90;;
36423;SDS011;22458;45.328;9.514;2023-06-10T11:04:59;5.40;;;1.88;;
36423;SDS011;22458;45.328;9.514;2023-06-10T11:07:26;5.68;;;1.65;;
36423;SDS011;22458;45.328;9.514;2023-06-10T11:12:24;5.32;;;1.55;;
36423;SDS011;22458;45.328;9.514;2023-06-10T11:14:54;3.67;;;1.95;;
36423;SDS011;22458;45.328;9.514;2023-06-10T11:17:21;4.65;;;1.92;;
36423;SDS011;22458;45.328;9.514;2023-06-10T11:19:48;4.45;;;2.65;;
36423;SDS011;22458;45.328;9.514;2023-06-10T11:22:17;2.13;;;1.67;;
36423;SDS011;22458;45.328;9.514;2023-06-10T11:24:47;3.33;;;1.95;;
36423;SDS011;22458;45.328;9.514;2023-06-10T11:27:18;4.13;;;2.35;;
36423;SDS011;22458;45.328;9.514;2023-06-10T11:32:34;4.20;;;1.80;;
36423;SDS011;22458;45.328;9.514;2023-06-10T11:35:03;4.30;;;2.63;;
36423;SDS011;22458;45.328;9.514;2023-06-10T11:37:30;3.40;;;1.67;;
36423;SDS011;22458;45.328;9.514;2023-06-10T11:39:56;2.95;;;2.05;;
36423;SDS011;22458;45.328;9.514;2023-06-10T11:42:23;5.68;;;2.25;;
36423;SDS011;22458;45.328;9.514;2023-06-10T11:44:53;4.05;;;1.88;;
36423;SDS011;22458;45.328;9.514;2023-06-10T11:47:20;2.30;;;1.80;;
36423;SDS011;22458;45.328;9.514;2023-06-10T11:49:55;4.40;;;1.75;;
36423;SDS011;22458;45.328;9.514;2023-06-10T11:52:28;3.17;;;2.28;;
36423;SDS011;22458;45.328;9.514;2023-06-10T11:54:57;3.38;;;2.50;;
36423;SDS011;22458;45.328;9.514;2023-06-10T11:57:23;5.93;;;2.13;;
36423;SDS011;22458;45.328;9.514;2023-06-10T11:59:49;2.05;;;1.60;;
36423;SDS011;22458;45.328;9.514;2023-06-10T12:02:15;1.58;;;1.30;;
36423;SDS011;22458;45.328;9.514;2023-06-10T12:04:42;3.78;;;1.60;;
36423;SDS011;22458;45.328;9.514;2023-06-10T12:07:08;38.50;;;5.25;;
36423;SDS011;22458;45.328;9.514;2023-06-10T12:09:46;4.45;;;1.80;;
36423;SDS011;22458;45.328;9.514;2023-06-10T12:12:12;1.85;;;1.40;;
36423;SDS011;22458;45.328;9.514;2023-06-10T12:14:52;4.22;;;1.90;;
36423;SDS011;22458;45.328;9.514;2023-06-10T12:19:56;2.70;;;1.55;;
36423;SDS011;22458;45.328;9.514;2023-06-10T12:22:23;5.35;;;1.50;;
36423;SDS011;22458;45.328;9.514;2023-06-10T12:24:59;2.47;;;1.63;;
36423;SDS011;22458;45.328;9.514;2023-06-10T12:27:30;3.25;;;1.40;;
36423;SDS011;22458;45.328;9.514;2023-06-10T12:30:00;3.38;;;1.50;;
36423;SDS011;22458;45.328;9.514;2023-06-10T12:32:43;3.13;;;1.60;;
36423;SDS011;22458;45.328;9.514;2023-06-10T12:35:11;3.92;;;1.48;;
36423;SDS011;22458;45.328;9.514;2023-06-10T12:37:38;5.68;;;1.60;;
36423;SDS011;22458;45.328;9.514;2023-06-10T12:40:07;3.28;;;2.00;;
36423;SDS011;22458;45.328;9.514;2023-06-10T12:42:36;4.05;;;1.73;;
36423;SDS011;22458;45.328;9.514;2023-06-10T12:45:03;3.40;;;1.67;;
36423;SDS011;22458;45.328;9.514;2023-06-10T12:47:32;2.47;;;1.52;;
36423;SDS011;22458;45.328;9.514;2023-06-10T12:50:04;3.85;;;1.88;;
36423;SDS011;22458;45.328;9.514;2023-06-10T12:52:30;3.88;;;1.67;;
36423;SDS011;22458;45.328;9.514;2023-06-10T12:54:57;4.43;;;1.42;;
36423;SDS011;22458;45.328;9.514;2023-06-10T12:57:23;3.40;;;1.73;;
36423;SDS011;22458;45.328;9.514;2023-06-10T12:59:50;3.40;;;1.80;;
36423;SDS011;22458;45.328;9.514;2023-06-10T13:02:18;3.88;;;1.30;;
36423;SDS011;22458;45.328;9.514;2023-06-10T13:04:49;2.70;;;1.80;;
36423;SDS011;22458;45.328;9.514;2023-06-10T13:07:15;3.28;;;1.40;;
36423;SDS011;22458;45.328;9.514;2023-06-10T13:09:41;5.70;;;2.20;;
36423;SDS011;22458;45.328;9.514;2023-06-10T13:12:08;4.47;;;1.50;;
36423;SDS011;22458;45.328;9.514;2023-06-10T13:14:35;2.75;;;1.75;;
36423;SDS011;22458;45.328;9.514;2023-06-10T13:17:03;4.07;;;1.60;;
36423;SDS011;22458;45.328;9.514;2023-06-10T13:19:31;2.67;;;1.23;;
36423;SDS011;22458;45.328;9.514;2023-06-10T13:24:26;3.67;;;1.70;;
36423;SDS011;22458;45.328;9.514;2023-06-10T13:26:52;3.85;;;1.33;;
36423;SDS011;22458;45.328;9.514;2023-06-10T13:29:18;3.63;;;1.80;;
36423;SDS011;22458;45.328;9.514;2023-06-10T13:31:43;2.28;;;1.80;;
36423;SDS011;22458;45.328;9.514;2023-06-10T13:34:09;2.58;;;1.75;;
36423;SDS011;22458;45.328;9.514;2023-06-10T13:36:35;4.05;;;1.75;;
36423;SDS011;22458;45.328;9.514;2023-06-10T13:39:01;3.05;;;1.30;;
36423;SDS011;22458;45.328;9.514;2023-06-10T13:41:27;4.35;;;1.40;;
36423;SDS011;22458;45.328;9.514;2023-06-10T13:43:54;3.60;;;2.45;;
36423;SDS011;22458;45.328;9.514;2023-06-10T13:46:20;2.97;;;1.38;;
36423;SDS011;22458;45.328;9.514;2023-06-10T13:48:49;2.78;;;1.42;;
36423;SDS011;22458;45.328;9.514;2023-06-10T13:51:15;5.45;;;1.88;;
36423;SDS011;22458;45.328;9.514;2023-06-10T13:53:40;2.03;;;1.58;;
36423;SDS011;22458;45.328;9.514;2023-06-10T13:56:06;2.83;;;1.40;;
36423;SDS011;22458;45.328;9.514;2023-06-10T13:58:32;3.55;;;1.88;;
36423;SDS011;22458;45.328;9.514;2023-06-10T14:01:03;3.92;;;1.60;;
36423;SDS011;22458;45.328;9.514;2023-06-10T14:03:30;1.63;;;1.15;;
36423;SDS011;22458;45.328;9.514;2023-06-10T14:05:55;2.83;;;1.40;;
36423;SDS011;22458;45.328;9.514;2023-06-10T14:08:21;3.08;;;1.60;;
36423;SDS011;22458;45.328;9.514;2023-06-10T14:10:47;3.17;;;1.85;;
36423;SDS011;22458;45.328;9.514;2023-06-10T14:13:13;3.30;;;1.75;;
36423;SDS011;22458;45.328;9.514;2023-06-10T14:15:39;2.53;;;1.30;;
36423;SDS011;22458;45.328;9.514;2023-06-10T14:18:04;2.22;;;1.52;;
36423;SDS011;22458;45.328;9.514;2023-06-10T14:20:31;2.45;;;1.30;;
36423;SDS011;22458;45.328;9.514;2023-06-10T14:22:57;2.03;;;1.40;;
36423;SDS011;22458;45.328;9.514;2023-06-10T14:25:24;3.83;;;1.40;;
36423;SDS011;22458;45.328;9.514;2023-06-10T14:27:50;1.58;;;1.25;;
36423;SDS011;22458;45.328;9.514;2023-06-10T14:30:16;1.38;;;0.98;;
36423;SDS011;22458;45.328;9.514;2023-06-10T14:32:42;2.55;;;1.27;;
36423;SDS011;22458;45.328;9.514;2023-06-10T14:35:08;2.47;;;1.00;;
36423;SDS011;22458;45.328;9.514;2023-06-10T14:37:34;2.88;;;0.90;;
36423;SDS011;22458;45.328;9.514;2023-06-10T14:40:00;5.07;;;1.25;;
36423;SDS011;22458;45.328;9.514;2023-06-10T14:42:26;1.80;;;1.10;;
36423;SDS011;22458;45.328;9.514;2023-06-10T14:44:51;1.30;;;1.00;;
36423;SDS011;22458;45.328;9.514;2023-06-10T14:47:17;1.75;;;1.00;;
36423;SDS011;22458;45.328;9.514;2023-06-10T14:49:43;3.72;;;1.30;;
36423;SDS011;22458;45.328;9.514;2023-06-10T14:52:09;3.30;;;1.27;;
36423;SDS011;22458;45.328;9.514;2023-06-10T14:54:34;2.15;;;1.17;;
36423;SDS011;22458;45.328;9.514;2023-06-10T14:57:00;2.00;;;1.10;;
36423;SDS011;22458;45.328;9.514;2023-06-10T14:59:26;4.47;;;0.90;;
36423;SDS011;22458;45.328;9.514;2023-06-10T15:01:53;1.40;;;0.98;;
36423;SDS011;22458;45.328;9.514;2023-06-10T15:04:19;1.63;;;0.90;;
36423;SDS011;22458;45.328;9.514;2023-06-10T15:06:46;1.98;;;1.17;;
36423;SDS011;22458;45.328;9.514;2023-06-10T15:09:13;4.45;;;1.50;;
36423;SDS011;22458;45.328;9.514;2023-06-10T15:11:40;3.40;;;1.30;;
36423;SDS011;22458;45.328;9.514;2023-06-10T15:14:06;2.33;;;1.20;;
36423;SDS011;22458;45.328;9.514;2023-06-10T15:16:32;1.95;;;1.20;;